Terminal Aerodrome Forecast
Issued by NWS Pueblo, CO

Home | Current Version | Previous Version | Text Only | Print | Product List | Glossary On
Versions: 1 2 3 4 5 6 7 8 9 10 11 12 13 14 15 16 17 18 19 20 21 22 23 24 25 26 27 28 29 30 31 32 33 34 35 36
000
FTUS45 KPUB 262320
TAFALS
TAF
KALS 262320Z 2700/2724 05008KT P6SM VCTS SCT060CB BKN100
      TEMPO 2700/2702 VRB15G30KT 5SM TSRA BKN040CB
     FM270400 35008KT P6SM VCSH SCT080 BKN120
     FM271000 VRB06KT P6SM SCT120 BKN200
     FM271900 12008KT P6SM VCTS SCT060CB BKN100=

USA.gov is the U.S. government's official web portal to all federal, state and local government web resources and services.